Terminal Aerodrome Forecast
Issued by NWS Riverton, WY

Home | Current Version | Previous Version | Text Only | Print | Product List | Glossary On
Versions: 1 2 3 4 5 6 7 8 9 10 11 12 13 14
000
FTUS45 KRIW 251700
TAFRIW
TAF
KRIW 251723Z 2518/2618 VRB05KT P6SM SCT110
     FM251900 26009KT P6SM SKC
     FM252200 29020G28KT P6SM FEW120
     FM260400 30010KT P6SM SKC
     FM261400 04006KT P6SM SKC=

USA.gov is the U.S. government's official web portal to all federal, state and local government web resources and services.